createdAt,value
2022-09-21T00:00:30.108Z,327.5
2022-09-21T00:05:30.130Z,337.5
2022-09-21T00:10:30.112Z,332.5
2022-09-21T00:15:30.103Z,352.5
2022-09-21T00:20:30.119Z,312.5
2022-09-21T00:25:30.108Z,332.5
2022-09-21T00:30:30.112Z,332.5
2022-09-21T00:35:30.099Z,315
2022-09-21T00:40:30.190Z,315
2022-09-21T00:45:30.202Z,322.5
2022-09-21T00:50:30.122Z,315
2022-09-21T00:55:30.104Z,317.5
2022-09-21T01:00:30.114Z,312.5
2022-09-21T01:05:30.122Z,312.5
2022-09-21T01:10:30.129Z,312.5
2022-09-21T01:15:30.103Z,315
2022-09-21T01:20:30.115Z,315
2022-09-21T01:25:30.100Z,312.5
2022-09-21T01:30:30.119Z,315
2022-09-21T01:35:30.116Z,310
2022-09-21T01:40:34.623Z,310
2022-09-21T01:45:30.151Z,312.5
2022-09-21T01:50:30.116Z,317.5
2022-09-21T01:55:30.110Z,322.5
2022-09-21T02:00:30.179Z,307.5
2022-09-21T02:05:30.113Z,297.5
2022-09-21T02:10:30.106Z,305
2022-09-21T02:15:30.105Z,150
2022-09-21T02:20:30.102Z,135
2022-09-21T02:25:30.106Z,135
2022-09-21T02:30:30.112Z,305
2022-09-21T02:35:30.096Z,310
2022-09-21T02:40:30.177Z,312.5
2022-09-21T02:45:30.107Z,312.5
2022-09-21T02:50:30.097Z,315
2022-09-21T02:55:30.094Z,310
2022-09-21T03:00:30.133Z,325
2022-09-21T03:05:30.110Z,320
2022-09-21T03:10:30.108Z,315
2022-09-21T03:15:30.099Z,312.5
2022-09-21T03:20:30.106Z,312.5
2022-09-21T03:25:30.096Z,317.5
2022-09-21T03:30:30.109Z,317.5
2022-09-21T03:35:30.100Z,320
2022-09-21T03:40:30.188Z,322.5
2022-09-21T03:45:30.112Z,322.5
2022-09-21T03:50:30.127Z,325
2022-09-21T03:55:30.103Z,325
2022-09-21T04:00:30.109Z,10
2022-09-21T04:05:30.105Z,10
2022-09-21T04:10:30.104Z,10
2022-09-21T04:15:30.148Z,10
2022-09-21T04:20:30.127Z,10
2022-09-21T04:25:30.110Z,257.5
2022-09-21T04:30:33.164Z,257.5
2022-09-21T04:35:30.103Z,257.5
2022-09-21T04:40:30.158Z,257.5
2022-09-21T04:45:30.127Z,312.5
2022-09-21T04:50:30.113Z,307.5
2022-09-21T04:55:30.103Z,310
2022-09-21T05:00:30.107Z,302.5
2022-09-21T05:05:30.095Z,315
2022-09-21T05:10:30.101Z,315
2022-09-21T05:15:30.202Z,315
2022-09-21T05:20:30.105Z,312.5
2022-09-21T05:25:30.104Z,325
2022-09-21T05:30:30.117Z,335
2022-09-21T05:35:30.110Z,2.5
2022-09-21T05:40:30.233Z,55
2022-09-21T05:45:30.099Z,180
2022-09-21T05:50:30.119Z,180
2022-09-21T05:55:30.113Z,180
2022-09-21T06:00:30.110Z,180
2022-09-21T06:05:30.103Z,180
2022-09-21T06:10:30.108Z,177.5
2022-09-21T06:15:30.101Z,155
2022-09-21T06:20:30.131Z,62.5
2022-09-21T06:25:30.096Z,85
2022-09-21T06:30:30.167Z,47.5
2022-09-21T06:35:30.120Z,25
2022-09-21T06:40:30.188Z,40
2022-09-21T06:45:30.108Z,30
2022-09-21T06:50:30.122Z,60
2022-09-21T06:55:30.111Z,57.5
2022-09-21T07:00:30.105Z,72.5
2022-09-21T07:05:30.112Z,67.5
2022-09-21T07:10:30.119Z,72.5
2022-09-21T07:15:30.114Z,80
2022-09-21T07:20:30.113Z,92.5
2022-09-21T07:25:30.103Z,100
2022-09-21T07:30:30.117Z,97.5
2022-09-21T07:35:30.096Z,92.5
2022-09-21T07:40:30.162Z,95
2022-09-21T07:45:30.166Z,70
2022-09-21T07:50:30.124Z,85
2022-09-21T07:55:30.113Z,82.5
2022-09-21T08:00:30.151Z,85
2022-09-21T08:05:30.113Z,70
2022-09-21T08:10:30.130Z,60
2022-09-21T08:15:48.614Z,75
2022-09-21T08:20:30.104Z,57.5
2022-09-21T08:25:30.104Z,75
2022-09-21T08:30:30.112Z,95
2022-09-21T08:35:30.092Z,65
2022-09-21T08:40:30.184Z,105
2022-09-21T08:45:30.100Z,80
2022-09-21T08:50:30.100Z,102.5
2022-09-21T08:55:30.103Z,100
2022-09-21T09:00:30.173Z,100
2022-09-21T09:05:30.107Z,112.5
2022-09-21T09:10:30.111Z,112.5
2022-09-21T09:15:30.111Z,72.5
2022-09-21T09:20:30.120Z,72.5
2022-09-21T09:25:30.100Z,72.5
2022-09-21T09:30:30.106Z,75
2022-09-21T09:35:30.103Z,80
2022-09-21T09:40:30.206Z,220
2022-09-21T09:45:30.118Z,115
2022-09-21T09:50:30.103Z,102.5
2022-09-21T09:55:30.117Z,102.5
2022-09-21T10:00:30.116Z,90
2022-09-21T10:05:30.105Z,90
2022-09-21T10:10:30.109Z,95
2022-09-21T10:15:30.110Z,125
2022-09-21T10:20:30.115Z,92.5
2022-09-21T10:25:30.118Z,160
2022-09-21T10:30:30.104Z,125
2022-09-21T10:35:30.112Z,205
2022-09-21T10:40:30.161Z,220
2022-09-21T10:45:30.115Z,75
2022-09-21T10:50:30.106Z,22.5
2022-09-21T10:55:30.102Z,105
2022-09-21T11:00:30.104Z,355
2022-09-21T11:05:30.108Z,67.5
2022-09-21T11:10:34.072Z,115
2022-09-21T11:15:30.192Z,80
2022-09-21T11:20:30.112Z,70
2022-09-21T11:25:30.101Z,77.5
2022-09-21T11:30:30.110Z,82.5
2022-09-21T11:35:30.101Z,52.5
2022-09-21T11:40:30.170Z,112.5
2022-09-21T11:45:30.115Z,120
2022-09-21T11:50:31.038Z,75
2022-09-21T11:55:30.106Z,62.5
2022-09-21T12:00:30.112Z,110
2022-09-21T12:05:30.099Z,145
2022-09-21T12:10:30.097Z,180
2022-09-21T12:15:30.103Z,170
2022-09-21T12:20:30.113Z,90
2022-09-21T12:25:30.097Z,172.5
2022-09-21T12:30:30.163Z,110
2022-09-21T12:35:30.104Z,147.5
2022-09-21T12:40:30.170Z,110
2022-09-21T12:45:30.102Z,100
2022-09-21T12:50:30.123Z,112.5
2022-09-21T12:55:30.104Z,97.5
2022-09-21T13:00:30.104Z,125
2022-09-21T13:05:30.104Z,140
2022-09-21T13:10:30.102Z,115
2022-09-21T13:15:30.103Z,127.5
2022-09-21T13:20:30.106Z,97.5
2022-09-21T13:25:30.104Z,67.5
2022-09-21T13:30:30.114Z,100
2022-09-21T13:35:30.125Z,120
2022-09-21T13:40:30.191Z,235
2022-09-21T13:45:30.174Z,247.5
2022-09-21T13:50:30.101Z,115
2022-09-21T13:55:30.104Z,155
2022-09-21T14:00:30.897Z,67.5
2022-09-21T14:05:30.105Z,100
2022-09-21T14:10:30.116Z,77.5
2022-09-21T14:15:30.106Z,75
2022-09-21T14:20:30.381Z,92.5
2022-09-21T14:25:30.117Z,107.5
2022-09-21T14:30:30.136Z,160
2022-09-21T14:35:33.383Z,160
2022-09-21T14:40:30.181Z,92.5
2022-09-21T14:45:30.105Z,65
2022-09-21T14:50:30.114Z,227.5
2022-09-21T14:55:30.115Z,65
2022-09-21T15:00:30.118Z,87.5
2022-09-21T15:05:30.096Z,87.5
2022-09-21T15:10:30.119Z,75
2022-09-21T15:15:30.101Z,82.5
2022-09-21T15:20:30.128Z,95
2022-09-21T15:25:30.108Z,90
2022-09-21T15:30:30.110Z,105
2022-09-21T15:35:30.104Z,97.5
2022-09-21T15:40:30.216Z,120
2022-09-21T15:45:30.102Z,117.5
2022-09-21T15:50:30.106Z,100
2022-09-21T15:55:30.095Z,115
2022-09-21T16:00:30.186Z,120
2022-09-21T16:05:30.111Z,117.5
2022-09-21T16:10:30.106Z,115
2022-09-21T16:15:30.120Z,102.5
2022-09-21T16:20:30.121Z,112.5
2022-09-21T16:25:30.112Z,105
2022-09-21T16:30:30.099Z,75
2022-09-21T16:35:30.107Z,60
2022-09-21T16:40:30.165Z,80
2022-09-21T16:45:30.100Z,335
2022-09-21T16:50:30.116Z,315
2022-09-21T16:55:30.096Z,317.5
2022-09-21T17:00:30.135Z,317.5
2022-09-21T17:05:30.104Z,315
2022-09-21T17:10:30.113Z,317.5
2022-09-21T17:15:30.110Z,322.5
2022-09-21T17:20:30.124Z,322.5
2022-09-21T17:25:30.100Z,322.5
2022-09-21T17:30:30.104Z,317.5
2022-09-21T17:35:30.099Z,332.5
2022-09-21T17:40:30.170Z,325
2022-09-21T17:45:30.102Z,327.5
2022-09-21T17:50:30.109Z,325
2022-09-21T17:55:30.105Z,322.5
2022-09-21T18:00:30.107Z,327.5
2022-09-21T18:05:30.109Z,320
2022-09-21T18:10:30.114Z,320
2022-09-21T18:15:30.106Z,327.5
2022-09-21T18:20:30.114Z,317.5
2022-09-21T18:25:30.108Z,327.5
2022-09-21T18:30:30.104Z,330
2022-09-21T18:35:30.103Z,317.5
2022-09-21T18:40:30.153Z,330
2022-09-21T18:45:30.101Z,325
2022-09-21T18:50:30.109Z,325
2022-09-21T18:55:30.100Z,320
2022-09-21T19:00:30.119Z,322.5
2022-09-21T19:05:30.103Z,320
2022-09-21T19:10:30.110Z,337.5
2022-09-21T19:15:55.888Z,327.5
2022-09-21T19:20:30.107Z,322.5
2022-09-21T19:25:30.099Z,322.5
2022-09-21T19:30:30.116Z,337.5
2022-09-21T19:35:30.108Z,337.5
2022-09-21T19:40:30.175Z,322.5
2022-09-21T19:45:30.099Z,320
2022-09-21T19:50:30.111Z,322.5
2022-09-21T19:55:30.094Z,320
2022-09-21T20:00:30.109Z,322.5
2022-09-21T20:05:30.112Z,322.5
2022-09-21T20:10:30.099Z,322.5
2022-09-21T20:15:30.102Z,315
2022-09-21T20:20:30.108Z,315
2022-09-21T20:25:30.097Z,320
2022-09-21T20:30:30.184Z,315
2022-09-21T20:35:30.115Z,315
2022-09-21T20:40:30.199Z,317.5
2022-09-21T20:45:30.104Z,320
2022-09-21T20:50:30.107Z,320
2022-09-21T20:55:30.103Z,317.5
2022-09-21T21:00:30.106Z,325
2022-09-21T21:05:30.101Z,325
2022-09-21T21:10:30.111Z,322.5
2022-09-21T21:15:30.121Z,315
2022-09-21T21:20:30.116Z,315
2022-09-21T21:25:30.221Z,317.5
2022-09-21T21:30:30.132Z,312.5
2022-09-21T21:35:30.133Z,317.5
2022-09-21T21:40:30.214Z,305
2022-09-21T21:45:30.183Z,315
2022-09-21T21:50:30.113Z,320
2022-09-21T21:55:30.110Z,307.5
2022-09-21T22:00:30.118Z,307.5
2022-09-21T22:05:30.106Z,305
2022-09-21T22:10:30.111Z,315
2022-09-21T22:15:30.097Z,297.5
2022-09-21T22:20:30.111Z,305
2022-09-21T22:25:30.105Z,302.5
2022-09-21T22:30:30.128Z,332.5
2022-09-21T22:35:30.091Z,312.5
2022-09-21T22:40:30.182Z,302.5
2022-09-21T22:45:30.139Z,320
2022-09-21T22:50:30.112Z,312.5
2022-09-21T22:55:30.094Z,317.5
2022-09-21T23:00:30.135Z,317.5
2022-09-21T23:05:30.108Z,317.5
2022-09-21T23:10:30.110Z,315
2022-09-21T23:15:30.099Z,317.5
2022-09-21T23:20:30.106Z,317.5
2022-09-21T23:25:30.105Z,320
2022-09-21T23:30:30.105Z,320
2022-09-21T23:35:30.106Z,320
2022-09-21T23:40:30.171Z,295
2022-09-21T23:45:30.104Z,310
2022-09-21T23:50:30.110Z,320
2022-09-21T23:55:30.107Z,310
